sensor_id;sensor_type;location;lat;lon;timestamp;P1;durP1;ratioP1;P2;durP2;ratioP2
30010;SDS011;16851;53.564;8.112;2023-07-30T00:03:07;8.93;;;3.63;;
30010;SDS011;16851;53.564;8.112;2023-07-30T00:08:09;6.05;;;3.47;;
30010;SDS011;16851;53.564;8.112;2023-07-30T00:13:13;6.90;;;3.63;;
30010;SDS011;16851;53.564;8.112;2023-07-30T00:18:15;9.90;;;4.75;;
30010;SDS011;16851;53.564;8.112;2023-07-30T00:23:18;8.80;;;3.70;;
30010;SDS011;16851;53.564;8.112;2023-07-30T00:28:19;5.53;;;3.90;;
30010;SDS011;16851;53.564;8.112;2023-07-30T00:33:24;7.50;;;5.03;;
30010;SDS011;16851;53.564;8.112;2023-07-30T00:38:30;7.68;;;3.92;;
30010;SDS011;16851;53.564;8.112;2023-07-30T00:43:36;8.07;;;5.25;;
30010;SDS011;16851;53.564;8.112;2023-07-30T00:48:38;8.65;;;5.80;;
30010;SDS011;16851;53.564;8.112;2023-07-30T00:53:45;8.73;;;4.95;;
30010;SDS011;16851;53.564;8.112;2023-07-30T00:58:47;7.78;;;5.43;;
30010;SDS011;16851;53.564;8.112;2023-07-30T01:03:50;9.68;;;5.40;;
30010;SDS011;16851;53.564;8.112;2023-07-30T01:08:52;7.40;;;4.70;;
30010;SDS011;16851;53.564;8.112;2023-07-30T01:13:56;6.78;;;4.38;;
30010;SDS011;16851;53.564;8.112;2023-07-30T01:18:58;7.25;;;5.03;;
30010;SDS011;16851;53.564;8.112;2023-07-30T01:24:04;13.55;;;5.50;;
30010;SDS011;16851;53.564;8.112;2023-07-30T01:29:07;7.43;;;4.20;;
30010;SDS011;16851;53.564;8.112;2023-07-30T01:34:13;8.70;;;4.68;;
30010;SDS011;16851;53.564;8.112;2023-07-30T01:39:15;9.50;;;4.93;;
30010;SDS011;16851;53.564;8.112;2023-07-30T01:44:17;5.53;;;4.45;;
30010;SDS011;16851;53.564;8.112;2023-07-30T01:49:21;8.63;;;4.90;;
30010;SDS011;16851;53.564;8.112;2023-07-30T01:54:23;10.80;;;5.10;;
30010;SDS011;16851;53.564;8.112;2023-07-30T01:59:25;8.65;;;4.20;;
30010;SDS011;16851;53.564;8.112;2023-07-30T02:04:26;10.50;;;4.93;;
30010;SDS011;16851;53.564;8.112;2023-07-30T02:09:31;12.50;;;5.63;;
30010;SDS011;16851;53.564;8.112;2023-07-30T02:14:35;10.90;;;5.32;;
30010;SDS011;16851;53.564;8.112;2023-07-30T02:19:39;12.25;;;6.20;;
30010;SDS011;16851;53.564;8.112;2023-07-30T02:24:41;8.88;;;5.70;;
30010;SDS011;16851;53.564;8.112;2023-07-30T02:29:43;8.70;;;4.28;;
30010;SDS011;16851;53.564;8.112;2023-07-30T02:34:46;9.52;;;5.70;;
30010;SDS011;16851;53.564;8.112;2023-07-30T02:39:48;12.60;;;6.60;;
30010;SDS011;16851;53.564;8.112;2023-07-30T02:44:52;13.18;;;5.53;;
30010;SDS011;16851;53.564;8.112;2023-07-30T02:49:56;14.65;;;6.60;;
30010;SDS011;16851;53.564;8.112;2023-07-30T02:54:58;13.35;;;5.78;;
30010;SDS011;16851;53.564;8.112;2023-07-30T02:59:59;14.50;;;6.72;;
30010;SDS011;16851;53.564;8.112;2023-07-30T03:05:04;12.82;;;6.22;;
30010;SDS011;16851;53.564;8.112;2023-07-30T03:10:07;17.48;;;7.85;;
30010;SDS011;16851;53.564;8.112;2023-07-30T03:15:11;14.82;;;7.72;;
30010;SDS011;16851;53.564;8.112;2023-07-30T03:20:13;12.90;;;7.78;;
30010;SDS011;16851;53.564;8.112;2023-07-30T03:25:15;16.90;;;8.00;;
30010;SDS011;16851;53.564;8.112;2023-07-30T03:30:19;18.80;;;8.30;;
30010;SDS011;16851;53.564;8.112;2023-07-30T03:35:21;14.52;;;8.23;;
30010;SDS011;16851;53.564;8.112;2023-07-30T03:40:27;18.42;;;8.35;;
30010;SDS011;16851;53.564;8.112;2023-07-30T03:45:30;18.45;;;8.93;;
30010;SDS011;16851;53.564;8.112;2023-07-30T03:50:34;16.05;;;8.50;;
30010;SDS011;16851;53.564;8.112;2023-07-30T03:55:39;16.80;;;8.82;;
30010;SDS011;16851;53.564;8.112;2023-07-30T04:00:42;19.92;;;8.40;;
30010;SDS011;16851;53.564;8.112;2023-07-30T04:05:44;22.17;;;7.65;;
30010;SDS011;16851;53.564;8.112;2023-07-30T04:10:48;18.45;;;7.97;;
30010;SDS011;16851;53.564;8.112;2023-07-30T04:15:50;19.15;;;8.45;;
30010;SDS011;16851;53.564;8.112;2023-07-30T04:20:55;21.40;;;7.25;;
30010;SDS011;16851;53.564;8.112;2023-07-30T04:25:59;24.40;;;7.97;;
30010;SDS011;16851;53.564;8.112;2023-07-30T04:31:03;17.00;;;7.30;;
30010;SDS011;16851;53.564;8.112;2023-07-30T04:36:11;20.80;;;7.82;;
30010;SDS011;16851;53.564;8.112;2023-07-30T04:41:20;19.27;;;7.22;;
30010;SDS011;16851;53.564;8.112;2023-07-30T04:46:28;22.60;;;7.15;;
30010;SDS011;16851;53.564;8.112;2023-07-30T04:51:32;23.38;;;7.05;;
30010;SDS011;16851;53.564;8.112;2023-07-30T04:56:34;21.85;;;7.07;;
30010;SDS011;16851;53.564;8.112;2023-07-30T05:01:36;23.17;;;7.00;;
30010;SDS011;16851;53.564;8.112;2023-07-30T05:06:40;21.00;;;7.18;;
30010;SDS011;16851;53.564;8.112;2023-07-30T05:11:42;19.10;;;6.55;;
30010;SDS011;16851;53.564;8.112;2023-07-30T05:16:46;21.38;;;7.53;;
30010;SDS011;16851;53.564;8.112;2023-07-30T05:21:48;19.60;;;7.35;;
30010;SDS011;16851;53.564;8.112;2023-07-30T05:26:50;20.65;;;6.13;;
30010;SDS011;16851;53.564;8.112;2023-07-30T05:31:54;19.88;;;6.95;;
30010;SDS011;16851;53.564;8.112;2023-07-30T05:36:56;25.88;;;6.28;;
30010;SDS011;16851;53.564;8.112;2023-07-30T05:41:57;23.33;;;6.35;;
30010;SDS011;16851;53.564;8.112;2023-07-30T05:47:03;15.85;;;6.22;;
30010;SDS011;16851;53.564;8.112;2023-07-30T05:52:05;15.32;;;6.03;;
30010;SDS011;16851;53.564;8.112;2023-07-30T05:57:07;15.40;;;5.75;;
30010;SDS011;16851;53.564;8.112;2023-07-30T06:02:11;18.17;;;5.82;;
30010;SDS011;16851;53.564;8.112;2023-07-30T06:07:18;18.65;;;5.43;;
30010;SDS011;16851;53.564;8.112;2023-07-30T06:12:22;19.85;;;6.13;;
30010;SDS011;16851;53.564;8.112;2023-07-30T06:17:24;18.30;;;5.20;;
30010;SDS011;16851;53.564;8.112;2023-07-30T06:22:28;19.80;;;5.30;;
30010;SDS011;16851;53.564;8.112;2023-07-30T06:27:32;16.13;;;5.05;;
30010;SDS011;16851;53.564;8.112;2023-07-30T06:32:36;17.60;;;4.63;;
30010;SDS011;16851;53.564;8.112;2023-07-30T06:37:38;17.60;;;4.63;;
30010;SDS011;16851;53.564;8.112;2023-07-30T06:42:40;25.35;;;5.88;;
30010;SDS011;16851;53.564;8.112;2023-07-30T06:47:42;18.00;;;5.40;;
30010;SDS011;16851;53.564;8.112;2023-07-30T06:52:49;31.70;;;6.25;;
30010;SDS011;16851;53.564;8.112;2023-07-30T06:57:53;19.30;;;4.53;;
30010;SDS011;16851;53.564;8.112;2023-07-30T07:02:57;19.25;;;4.53;;
30010;SDS011;16851;53.564;8.112;2023-07-30T07:08:02;19.92;;;4.22;;
30010;SDS011;16851;53.564;8.112;2023-07-30T07:13:07;17.15;;;4.28;;
30010;SDS011;16851;53.564;8.112;2023-07-30T07:18:09;17.15;;;4.50;;
30010;SDS011;16851;53.564;8.112;2023-07-30T07:23:14;16.88;;;4.18;;
30010;SDS011;16851;53.564;8.112;2023-07-30T07:28:18;15.00;;;3.90;;
30010;SDS011;16851;53.564;8.112;2023-07-30T07:33:20;14.60;;;4.05;;
30010;SDS011;16851;53.564;8.112;2023-07-30T07:38:22;15.82;;;3.55;;
30010;SDS011;16851;53.564;8.112;2023-07-30T07:43:27;15.18;;;3.78;;
30010;SDS011;16851;53.564;8.112;2023-07-30T07:48:29;17.85;;;3.85;;
30010;SDS011;16851;53.564;8.112;2023-07-30T07:53:34;11.50;;;2.90;;
30010;SDS011;16851;53.564;8.112;2023-07-30T07:58:36;19.33;;;4.05;;
30010;SDS011;16851;53.564;8.112;2023-07-30T08:03:44;15.77;;;3.70;;
30010;SDS011;16851;53.564;8.112;2023-07-30T08:08:49;14.48;;;3.20;;
30010;SDS011;16851;53.564;8.112;2023-07-30T08:13:53;13.63;;;3.33;;
30010;SDS011;16851;53.564;8.112;2023-07-30T08:18:54;16.80;;;3.58;;
30010;SDS011;16851;53.564;8.112;2023-07-30T08:23:57;13.18;;;3.78;;
30010;SDS011;16851;53.564;8.112;2023-07-30T08:29:02;17.45;;;3.72;;
30010;SDS011;16851;53.564;8.112;2023-07-30T08:34:07;13.82;;;2.97;;
30010;SDS011;16851;53.564;8.112;2023-07-30T08:39:09;9.43;;;2.72;;
30010;SDS011;16851;53.564;8.112;2023-07-30T08:44:12;14.88;;;3.20;;
30010;SDS011;16851;53.564;8.112;2023-07-30T08:49:14;13.52;;;3.22;;
30010;SDS011;16851;53.564;8.112;2023-07-30T08:54:19;20.60;;;3.65;;
30010;SDS011;16851;53.564;8.112;2023-07-30T08:59:22;12.35;;;2.90;;
30010;SDS011;16851;53.564;8.112;2023-07-30T09:04:24;13.25;;;2.83;;
30010;SDS011;16851;53.564;8.112;2023-07-30T09:09:26;14.18;;;2.95;;
30010;SDS011;16851;53.564;8.112;2023-07-30T09:14:31;16.52;;;2.83;;
30010;SDS011;16851;53.564;8.112;2023-07-30T09:19:35;13.98;;;2.92;;
30010;SDS011;16851;53.564;8.112;2023-07-30T09:24:41;10.10;;;2.70;;
30010;SDS011;16851;53.564;8.112;2023-07-30T09:29:49;14.68;;;3.00;;
30010;SDS011;16851;53.564;8.112;2023-07-30T09:34:53;13.07;;;2.80;;
30010;SDS011;16851;53.564;8.112;2023-07-30T09:39:55;10.38;;;2.63;;
30010;SDS011;16851;53.564;8.112;2023-07-30T09:45:01;14.80;;;2.72;;
30010;SDS011;16851;53.564;8.112;2023-07-30T09:50:08;13.45;;;3.30;;
30010;SDS011;16851;53.564;8.112;2023-07-30T09:55:13;11.82;;;3.15;;
30010;SDS011;16851;53.564;8.112;2023-07-30T10:00:17;15.13;;;2.80;;
30010;SDS011;16851;53.564;8.112;2023-07-30T10:05:20;18.38;;;3.30;;
30010;SDS011;16851;53.564;8.112;2023-07-30T10:10:26;11.23;;;2.58;;
30010;SDS011;16851;53.564;8.112;2023-07-30T10:15:38;11.40;;;2.55;;
30010;SDS011;16851;53.564;8.112;2023-07-30T10:20:40;11.93;;;2.88;;
30010;SDS011;16851;53.564;8.112;2023-07-30T10:30:55;12.55;;;2.50;;
30010;SDS011;16851;53.564;8.112;2023-07-30T10:36:05;9.70;;;2.08;;
30010;SDS011;16851;53.564;8.112;2023-07-30T10:41:10;8.85;;;2.03;;
30010;SDS011;16851;53.564;8.112;2023-07-30T10:46:18;6.50;;;1.70;;
30010;SDS011;16851;53.564;8.112;2023-07-30T10:51:28;7.32;;;1.67;;
30010;SDS011;16851;53.564;8.112;2023-07-30T10:56:31;7.15;;;1.42;;
30010;SDS011;16851;53.564;8.112;2023-07-30T11:01:38;5.95;;;1.65;;
30010;SDS011;16851;53.564;8.112;2023-07-30T11:06:49;4.82;;;1.92;;
30010;SDS011;16851;53.564;8.112;2023-07-30T11:11:52;8.77;;;2.00;;
30010;SDS011;16851;53.564;8.112;2023-07-30T11:16:58;8.02;;;2.25;;
30010;SDS011;16851;53.564;8.112;2023-07-30T11:22:00;9.73;;;2.50;;
30010;SDS011;16851;53.564;8.112;2023-07-30T11:27:08;10.73;;;2.00;;
30010;SDS011;16851;53.564;8.112;2023-07-30T11:32:12;6.10;;;2.03;;
30010;SDS011;16851;53.564;8.112;2023-07-30T11:37:18;8.98;;;2.33;;
30010;SDS011;16851;53.564;8.112;2023-07-30T11:42:23;9.60;;;2.25;;
30010;SDS011;16851;53.564;8.112;2023-07-30T11:47:25;8.73;;;2.63;;
30010;SDS011;16851;53.564;8.112;2023-07-30T11:52:29;9.10;;;2.60;;
30010;SDS011;16851;53.564;8.112;2023-07-30T11:57:34;9.85;;;2.53;;
30010;SDS011;16851;53.564;8.112;2023-07-30T12:02:37;12.27;;;2.58;;
30010;SDS011;16851;53.564;8.112;2023-07-30T12:07:47;11.05;;;2.20;;
30010;SDS011;16851;53.564;8.112;2023-07-30T12:12:50;6.45;;;1.55;;
30010;SDS011;16851;53.564;8.112;2023-07-30T12:17:54;8.00;;;1.70;;
30010;SDS011;16851;53.564;8.112;2023-07-30T12:22:56;7.15;;;1.90;;
30010;SDS011;16851;53.564;8.112;2023-07-30T12:28:03;6.82;;;1.80;;
30010;SDS011;16851;53.564;8.112;2023-07-30T12:33:10;6.97;;;1.83;;
30010;SDS011;16851;53.564;8.112;2023-07-30T12:38:12;6.95;;;1.90;;
30010;SDS011;16851;53.564;8.112;2023-07-30T12:43:15;6.45;;;1.65;;
30010;SDS011;16851;53.564;8.112;2023-07-30T12:48:17;5.05;;;1.63;;
30010;SDS011;16851;53.564;8.112;2023-07-30T12:53:19;8.05;;;1.50;;
30010;SDS011;16851;53.564;8.112;2023-07-30T12:58:21;9.30;;;1.75;;
30010;SDS011;16851;53.564;8.112;2023-07-30T13:03:25;7.57;;;1.70;;
30010;SDS011;16851;53.564;8.112;2023-07-30T13:08:29;7.93;;;1.65;;
30010;SDS011;16851;53.564;8.112;2023-07-30T13:13:35;7.35;;;1.40;;
30010;SDS011;16851;53.564;8.112;2023-07-30T13:18:37;7.82;;;1.60;;
30010;SDS011;16851;53.564;8.112;2023-07-30T13:23:42;7.47;;;2.00;;
30010;SDS011;16851;53.564;8.112;2023-07-30T13:28:43;5.88;;;1.30;;
30010;SDS011;16851;53.564;8.112;2023-07-30T13:33:45;8.80;;;1.80;;
30010;SDS011;16851;53.564;8.112;2023-07-30T13:38:48;8.38;;;1.92;;
30010;SDS011;16851;53.564;8.112;2023-07-30T13:43:50;7.75;;;2.00;;
30010;SDS011;16851;53.564;8.112;2023-07-30T13:48:57;14.80;;;2.78;;
30010;SDS011;16851;53.564;8.112;2023-07-30T13:53:59;13.10;;;2.80;;
30010;SDS011;16851;53.564;8.112;2023-07-30T13:59:03;11.52;;;2.25;;
30010;SDS011;16851;53.564;8.112;2023-07-30T14:04:05;11.65;;;2.28;;
30010;SDS011;16851;53.564;8.112;2023-07-30T14:09:09;11.80;;;2.63;;
30010;SDS011;16851;53.564;8.112;2023-07-30T14:14:11;6.30;;;2.35;;
30010;SDS011;16851;53.564;8.112;2023-07-30T14:19:16;11.38;;;2.42;;
30010;SDS011;16851;53.564;8.112;2023-07-30T14:24:20;9.30;;;2.72;;
30010;SDS011;16851;53.564;8.112;2023-07-30T14:29:27;8.27;;;2.40;;
30010;SDS011;16851;53.564;8.112;2023-07-30T14:34:31;7.63;;;2.55;;
30010;SDS011;16851;53.564;8.112;2023-07-30T14:39:33;11.25;;;3.80;;
30010;SDS011;16851;53.564;8.112;2023-07-30T14:44:35;10.15;;;2.35;;
30010;SDS011;16851;53.564;8.112;2023-07-30T14:49:36;9.15;;;2.53;;
30010;SDS011;16851;53.564;8.112;2023-07-30T14:54:41;11.02;;;1.90;;
30010;SDS011;16851;53.564;8.112;2023-07-30T14:59:45;8.48;;;2.10;;
30010;SDS011;16851;53.564;8.112;2023-07-30T15:04:49;10.15;;;2.00;;
30010;SDS011;16851;53.564;8.112;2023-07-30T15:09:52;10.82;;;2.47;;
30010;SDS011;16851;53.564;8.112;2023-07-30T15:14:56;12.68;;;2.70;;
30010;SDS011;16851;53.564;8.112;2023-07-30T15:19:58;9.18;;;2.30;;
30010;SDS011;16851;53.564;8.112;2023-07-30T15:25:05;13.77;;;2.33;;
30010;SDS011;16851;53.564;8.112;2023-07-30T15:30:07;13.50;;;2.25;;
30010;SDS011;16851;53.564;8.112;2023-07-30T15:35:12;10.93;;;2.65;;
30010;SDS011;16851;53.564;8.112;2023-07-30T15:40:17;15.02;;;3.53;;
30010;SDS011;16851;53.564;8.112;2023-07-30T15:45:19;10.43;;;2.60;;
30010;SDS011;16851;53.564;8.112;2023-07-30T15:50:24;11.65;;;2.85;;
30010;SDS011;16851;53.564;8.112;2023-07-30T15:55:28;7.90;;;2.28;;
30010;SDS011;16851;53.564;8.112;2023-07-30T16:00:30;7.35;;;1.60;;
30010;SDS011;16851;53.564;8.112;2023-07-30T16:05:31;8.82;;;1.65;;
30010;SDS011;16851;53.564;8.112;2023-07-30T16:10:36;6.25;;;1.17;;
30010;SDS011;16851;53.564;8.112;2023-07-30T16:15:38;6.40;;;1.35;;
30010;SDS011;16851;53.564;8.112;2023-07-30T16:20:39;5.72;;;1.73;;
30010;SDS011;16851;53.564;8.112;2023-07-30T16:25:41;4.10;;;1.20;;
30010;SDS011;16851;53.564;8.112;2023-07-30T16:30:51;8.50;;;1.30;;
30010;SDS011;16851;53.564;8.112;2023-07-30T16:35:55;7.78;;;2.17;;
30010;SDS011;16851;53.564;8.112;2023-07-30T16:41:02;10.13;;;1.55;;
30010;SDS011;16851;53.564;8.112;2023-07-30T16:46:07;8.77;;;1.45;;
30010;SDS011;16851;53.564;8.112;2023-07-30T16:51:12;9.13;;;1.92;;
30010;SDS011;16851;53.564;8.112;2023-07-30T16:56:14;17.50;;;3.47;;
30010;SDS011;16851;53.564;8.112;2023-07-30T17:01:16;13.95;;;2.70;;
30010;SDS011;16851;53.564;8.112;2023-07-30T17:06:24;11.23;;;2.67;;
30010;SDS011;16851;53.564;8.112;2023-07-30T17:11:28;7.65;;;2.45;;
30010;SDS011;16851;53.564;8.112;2023-07-30T17:16:30;9.40;;;1.95;;
30010;SDS011;16851;53.564;8.112;2023-07-30T17:21:37;9.43;;;2.10;;
30010;SDS011;16851;53.564;8.112;2023-07-30T17:26:42;9.88;;;2.30;;
30010;SDS011;16851;53.564;8.112;2023-07-30T17:31:44;5.88;;;1.60;;
30010;SDS011;16851;53.564;8.112;2023-07-30T17:36:46;10.45;;;2.15;;
30010;SDS011;16851;53.564;8.112;2023-07-30T17:41:48;6.68;;;1.85;;
30010;SDS011;16851;53.564;8.112;2023-07-30T17:46:50;7.32;;;1.90;;
30010;SDS011;16851;53.564;8.112;2023-07-30T17:51:56;9.75;;;1.75;;
30010;SDS011;16851;53.564;8.112;2023-07-30T17:56:58;9.07;;;1.90;;
30010;SDS011;16851;53.564;8.112;2023-07-30T18:01:59;12.60;;;2.47;;
30010;SDS011;16851;53.564;8.112;2023-07-30T18:07:02;7.75;;;1.88;;
30010;SDS011;16851;53.564;8.112;2023-07-30T18:12:04;10.00;;;2.38;;
30010;SDS011;16851;53.564;8.112;2023-07-30T18:17:06;7.75;;;2.22;;
30010;SDS011;16851;53.564;8.112;2023-07-30T18:22:11;8.95;;;2.00;;
30010;SDS011;16851;53.564;8.112;2023-07-30T18:27:13;9.88;;;1.92;;
30010;SDS011;16851;53.564;8.112;2023-07-30T18:32:17;7.60;;;1.90;;
30010;SDS011;16851;53.564;8.112;2023-07-30T18:37:21;3.50;;;1.33;;
30010;SDS011;16851;53.564;8.112;2023-07-30T18:42:25;11.30;;;2.50;;
30010;SDS011;16851;53.564;8.112;2023-07-30T18:47:32;6.13;;;1.50;;
30010;SDS011;16851;53.564;8.112;2023-07-30T18:52:37;6.43;;;1.52;;
30010;SDS011;16851;53.564;8.112;2023-07-30T18:57:39;6.10;;;1.38;;
30010;SDS011;16851;53.564;8.112;2023-07-30T19:02:46;7.60;;;1.60;;
30010;SDS011;16851;53.564;8.112;2023-07-30T19:07:47;10.10;;;1.98;;
30010;SDS011;16851;53.564;8.112;2023-07-30T19:12:52;8.02;;;1.90;;
30010;SDS011;16851;53.564;8.112;2023-07-30T19:17:57;6.35;;;1.63;;
30010;SDS011;16851;53.564;8.112;2023-07-30T19:22:59;6.78;;;1.83;;
30010;SDS011;16851;53.564;8.112;2023-07-30T19:28:05;10.07;;;2.03;;
30010;SDS011;16851;53.564;8.112;2023-07-30T19:33:08;5.18;;;1.60;;
30010;SDS011;16851;53.564;8.112;2023-07-30T19:38:10;8.63;;;2.17;;
30010;SDS011;16851;53.564;8.112;2023-07-30T19:43:17;7.13;;;1.80;;
30010;SDS011;16851;53.564;8.112;2023-07-30T19:48:24;9.40;;;1.75;;
30010;SDS011;16851;53.564;8.112;2023-07-30T19:53:28;6.68;;;1.73;;
30010;SDS011;16851;53.564;8.112;2023-07-30T19:58:35;8.90;;;1.88;;
30010;SDS011;16851;53.564;8.112;2023-07-30T20:03:36;7.85;;;2.28;;
30010;SDS011;16851;53.564;8.112;2023-07-30T20:08:41;6.80;;;1.75;;
30010;SDS011;16851;53.564;8.112;2023-07-30T20:13:45;10.38;;;2.10;;
30010;SDS011;16851;53.564;8.112;2023-07-30T20:18:50;8.40;;;2.42;;
30010;SDS011;16851;53.564;8.112;2023-07-30T20:23:52;9.30;;;1.80;;
30010;SDS011;16851;53.564;8.112;2023-07-30T20:28:54;12.45;;;2.05;;
30010;SDS011;16851;53.564;8.112;2023-07-30T20:34:02;9.55;;;2.08;;
30010;SDS011;16851;53.564;8.112;2023-07-30T20:39:07;10.05;;;1.90;;
30010;SDS011;16851;53.564;8.112;2023-07-30T20:44:11;11.90;;;2.50;;
30010;SDS011;16851;53.564;8.112;2023-07-30T20:49:14;7.88;;;2.03;;
30010;SDS011;16851;53.564;8.112;2023-07-30T20:54:20;11.40;;;2.00;;
30010;SDS011;16851;53.564;8.112;2023-07-30T20:59:24;13.85;;;2.20;;
30010;SDS011;16851;53.564;8.112;2023-07-30T21:04:28;8.57;;;2.25;;
30010;SDS011;16851;53.564;8.112;2023-07-30T21:09:30;11.88;;;2.42;;
30010;SDS011;16851;53.564;8.112;2023-07-30T21:14:32;12.65;;;2.42;;
30010;SDS011;16851;53.564;8.112;2023-07-30T21:19:36;18.45;;;2.88;;
30010;SDS011;16851;53.564;8.112;2023-07-30T21:24:38;14.00;;;2.83;;
30010;SDS011;16851;53.564;8.112;2023-07-30T21:29:40;29.98;;;3.30;;
30010;SDS011;16851;53.564;8.112;2023-07-30T21:34:42;13.40;;;2.72;;
30010;SDS011;16851;53.564;8.112;2023-07-30T21:39:44;13.05;;;2.80;;
30010;SDS011;16851;53.564;8.112;2023-07-30T21:44:45;12.13;;;2.40;;
30010;SDS011;16851;53.564;8.112;2023-07-30T21:49:47;14.02;;;2.83;;
30010;SDS011;16851;53.564;8.112;2023-07-30T21:54:52;15.18;;;3.10;;
30010;SDS011;16851;53.564;8.112;2023-07-30T21:59:54;14.20;;;2.85;;
30010;SDS011;16851;53.564;8.112;2023-07-30T22:04:56;14.43;;;2.83;;
30010;SDS011;16851;53.564;8.112;2023-07-30T22:09:57;14.75;;;3.00;;
30010;SDS011;16851;53.564;8.112;2023-07-30T22:14:59;18.25;;;3.38;;
30010;SDS011;16851;53.564;8.112;2023-07-30T22:20:01;11.02;;;2.80;;
30010;SDS011;16851;53.564;8.112;2023-07-30T22:25:04;16.00;;;3.40;;
30010;SDS011;16851;53.564;8.112;2023-07-30T22:30:10;13.60;;;3.60;;
30010;SDS011;16851;53.564;8.112;2023-07-30T22:35:12;18.80;;;3.38;;
30010;SDS011;16851;53.564;8.112;2023-07-30T22:40:14;15.60;;;3.28;;
30010;SDS011;16851;53.564;8.112;2023-07-30T22:45:19;19.38;;;3.88;;
30010;SDS011;16851;53.564;8.112;2023-07-30T22:50:21;14.70;;;3.40;;
30010;SDS011;16851;53.564;8.112;2023-07-30T22:55:22;20.35;;;3.85;;
30010;SDS011;16851;53.564;8.112;2023-07-30T23:00:29;16.35;;;3.67;;
30010;SDS011;16851;53.564;8.112;2023-07-30T23:05:31;20.08;;;4.18;;
30010;SDS011;16851;53.564;8.112;2023-07-30T23:10:33;17.70;;;3.63;;
30010;SDS011;16851;53.564;8.112;2023-07-30T23:15:34;20.33;;;4.07;;
30010;SDS011;16851;53.564;8.112;2023-07-30T23:20:36;17.85;;;4.18;;
30010;SDS011;16851;53.564;8.112;2023-07-30T23:25:40;19.25;;;4.55;;
30010;SDS011;16851;53.564;8.112;2023-07-30T23:30:44;15.95;;;3.75;;
30010;SDS011;16851;53.564;8.112;2023-07-30T23:35:46;17.70;;;4.18;;
30010;SDS011;16851;53.564;8.112;2023-07-30T23:40:48;15.57;;;4.18;;
30010;SDS011;16851;53.564;8.112;2023-07-30T23:45:49;10.75;;;3.03;;
30010;SDS011;16851;53.564;8.112;2023-07-30T23:50:51;11.80;;;4.10;;
30010;SDS011;16851;53.564;8.112;2023-07-30T23:56:06;11.90;;;4.07;;
